sensor_id;sensor_type;location;lat;lon;timestamp;pressure;altitude;pressure_sealevel;temperature
60966;BMP180;46834;51.100;6.886;2022-11-20T00:01:28;100701.00;;;9.30
60966;BMP180;46834;51.100;6.886;2022-11-20T00:03:56;100719.00;;;9.30
60966;BMP180;46834;51.100;6.886;2022-11-20T00:06:23;100719.00;;;9.30
60966;BMP180;46834;51.100;6.886;2022-11-20T00:08:50;100714.00;;;9.30
60966;BMP180;46834;51.100;6.886;2022-11-20T00:11:19;100711.00;;;9.30
60966;BMP180;46834;51.100;6.886;2022-11-20T00:13:49;100700.00;;;9.30
60966;BMP180;46834;51.100;6.886;2022-11-20T00:16:18;100702.00;;;9.30
60966;BMP180;46834;51.100;6.886;2022-11-20T00:18:45;100703.00;;;9.30
60966;BMP180;46834;51.100;6.886;2022-11-20T00:21:22;100704.00;;;9.30
60966;BMP180;46834;51.100;6.886;2022-11-20T00:23:49;100705.00;;;9.30
60966;BMP180;46834;51.100;6.886;2022-11-20T00:26:17;100704.00;;;9.30
60966;BMP180;46834;51.100;6.886;2022-11-20T00:28:50;100708.00;;;9.20
60966;BMP180;46834;51.100;6.886;2022-11-20T00:31:16;100713.00;;;9.20
60966;BMP180;46834;51.100;6.886;2022-11-20T00:33:43;100703.00;;;9.20
60966;BMP180;46834;51.100;6.886;2022-11-20T00:36:16;100708.00;;;9.30
60966;BMP180;46834;51.100;6.886;2022-11-20T00:38:42;100711.00;;;9.30
60966;BMP180;46834;51.100;6.886;2022-11-20T00:41:11;100705.00;;;9.30
60966;BMP180;46834;51.100;6.886;2022-11-20T00:43:38;100708.00;;;9.30
60966;BMP180;46834;51.100;6.886;2022-11-20T00:46:09;100705.00;;;9.30
60966;BMP180;46834;51.100;6.886;2022-11-20T00:48:37;100704.00;;;9.30
60966;BMP180;46834;51.100;6.886;2022-11-20T00:51:03;100705.00;;;9.30
60966;BMP180;46834;51.100;6.886;2022-11-20T00:53:30;100715.00;;;9.30
60966;BMP180;46834;51.100;6.886;2022-11-20T00:56:02;100706.00;;;9.30
60966;BMP180;46834;51.100;6.886;2022-11-20T00:58:37;100712.00;;;9.30
60966;BMP180;46834;51.100;6.886;2022-11-20T01:01:15;100707.00;;;9.30
60966;BMP180;46834;51.100;6.886;2022-11-20T01:03:49;100696.00;;;9.30
60966;BMP180;46834;51.100;6.886;2022-11-20T01:06:24;100688.00;;;9.30
60966;BMP180;46834;51.100;6.886;2022-11-20T01:08:55;100694.00;;;9.30
60966;BMP180;46834;51.100;6.886;2022-11-20T01:11:26;100697.00;;;9.30
60966;BMP180;46834;51.100;6.886;2022-11-20T01:13:54;100692.00;;;9.30
60966;BMP180;46834;51.100;6.886;2022-11-20T01:16:30;100689.00;;;9.20
60966;BMP180;46834;51.100;6.886;2022-11-20T01:19:01;100698.00;;;9.20
60966;BMP180;46834;51.100;6.886;2022-11-20T01:21:33;100690.00;;;9.20
60966;BMP180;46834;51.100;6.886;2022-11-20T01:23:59;100679.00;;;9.20
60966;BMP180;46834;51.100;6.886;2022-11-20T01:26:31;100695.00;;;9.20
60966;BMP180;46834;51.100;6.886;2022-11-20T01:28:59;100674.00;;;9.20
60966;BMP180;46834;51.100;6.886;2022-11-20T01:31:32;100688.00;;;9.20
60966;BMP180;46834;51.100;6.886;2022-11-20T01:34:02;100680.00;;;9.20
60966;BMP180;46834;51.100;6.886;2022-11-20T01:36:30;100681.00;;;9.20
60966;BMP180;46834;51.100;6.886;2022-11-20T01:39:00;100695.00;;;9.20
60966;BMP180;46834;51.100;6.886;2022-11-20T01:41:30;100677.00;;;9.20
60966;BMP180;46834;51.100;6.886;2022-11-20T01:44:18;100692.00;;;9.20
60966;BMP180;46834;51.100;6.886;2022-11-20T01:49:34;100670.00;;;9.20
60966;BMP180;46834;51.100;6.886;2022-11-20T01:52:34;100681.00;;;9.20
60966;BMP180;46834;51.100;6.886;2022-11-20T01:55:13;100688.00;;;9.20
60966;BMP180;46834;51.100;6.886;2022-11-20T01:57:41;100671.00;;;9.20
60966;BMP180;46834;51.100;6.886;2022-11-20T02:00:11;100667.00;;;9.20
60966;BMP180;46834;51.100;6.886;2022-11-20T02:02:41;100670.00;;;9.20
60966;BMP180;46834;51.100;6.886;2022-11-20T02:05:35;100667.00;;;9.20
60966;BMP180;46834;51.100;6.886;2022-11-20T02:08:04;100661.00;;;9.20
60966;BMP180;46834;51.100;6.886;2022-11-20T02:10:31;100668.00;;;9.20
60966;BMP180;46834;51.100;6.886;2022-11-20T02:12:58;100663.00;;;9.20
60966;BMP180;46834;51.100;6.886;2022-11-20T02:15:43;100652.00;;;9.20
60966;BMP180;46834;51.100;6.886;2022-11-20T02:18:11;100647.00;;;9.20
60966;BMP180;46834;51.100;6.886;2022-11-20T02:20:38;100632.00;;;9.10
60966;BMP180;46834;51.100;6.886;2022-11-20T02:23:32;100655.00;;;9.10
60966;BMP180;46834;51.100;6.886;2022-11-20T02:26:01;100642.00;;;9.10
60966;BMP180;46834;51.100;6.886;2022-11-20T02:28:27;100632.00;;;9.10
60966;BMP180;46834;51.100;6.886;2022-11-20T02:30:53;100620.00;;;9.00
60966;BMP180;46834;51.100;6.886;2022-11-20T02:33:18;100630.00;;;9.00
60966;BMP180;46834;51.100;6.886;2022-11-20T02:35:47;100625.00;;;8.90
60966;BMP180;46834;51.100;6.886;2022-11-20T02:38:14;100630.00;;;8.90
60966;BMP180;46834;51.100;6.886;2022-11-20T02:40:41;100618.00;;;8.90
60966;BMP180;46834;51.100;6.886;2022-11-20T02:43:07;100629.00;;;8.90
60966;BMP180;46834;51.100;6.886;2022-11-20T02:45:33;100630.00;;;8.90
60966;BMP180;46834;51.100;6.886;2022-11-20T02:47:59;100627.00;;;8.80
60966;BMP180;46834;51.100;6.886;2022-11-20T02:50:24;100631.00;;;8.80
60966;BMP180;46834;51.100;6.886;2022-11-20T02:52:50;100620.00;;;8.80
60966;BMP180;46834;51.100;6.886;2022-11-20T02:55:16;100630.00;;;8.80
60966;BMP180;46834;51.100;6.886;2022-11-20T02:57:41;100635.00;;;8.80
60966;BMP180;46834;51.100;6.886;2022-11-20T03:00:08;100626.00;;;8.80
60966;BMP180;46834;51.100;6.886;2022-11-20T03:02:34;100630.00;;;8.90
60966;BMP180;46834;51.100;6.886;2022-11-20T03:05:00;100621.00;;;8.90
60966;BMP180;46834;51.100;6.886;2022-11-20T03:07:26;100626.00;;;8.90
60966;BMP180;46834;51.100;6.886;2022-11-20T03:09:51;100632.00;;;8.90
60966;BMP180;46834;51.100;6.886;2022-11-20T03:12:17;100620.00;;;8.90
60966;BMP180;46834;51.100;6.886;2022-11-20T03:14:43;100620.00;;;8.90
60966;BMP180;46834;51.100;6.886;2022-11-20T03:17:08;100633.00;;;8.90
60966;BMP180;46834;51.100;6.886;2022-11-20T03:19:34;100631.00;;;8.90
60966;BMP180;46834;51.100;6.886;2022-11-20T03:22:00;100632.00;;;8.90
60966;BMP180;46834;51.100;6.886;2022-11-20T03:24:26;100633.00;;;8.90
60966;BMP180;46834;51.100;6.886;2022-11-20T03:26:52;100629.00;;;8.90
60966;BMP180;46834;51.100;6.886;2022-11-20T03:29:18;100626.00;;;8.90
60966;BMP180;46834;51.100;6.886;2022-11-20T03:31:44;100630.00;;;8.90
60966;BMP180;46834;51.100;6.886;2022-11-20T03:34:11;100624.00;;;8.90
60966;BMP180;46834;51.100;6.886;2022-11-20T03:36:42;100628.00;;;8.90
60966;BMP180;46834;51.100;6.886;2022-11-20T03:39:09;100624.00;;;8.90
60966;BMP180;46834;51.100;6.886;2022-11-20T03:41:41;100624.00;;;8.90
60966;BMP180;46834;51.100;6.886;2022-11-20T03:44:10;100633.00;;;8.90
60966;BMP180;46834;51.100;6.886;2022-11-20T03:46:37;100619.00;;;8.90
60966;BMP180;46834;51.100;6.886;2022-11-20T03:49:03;100619.00;;;8.90
60966;BMP180;46834;51.100;6.886;2022-11-20T03:51:33;100616.00;;;8.90
60966;BMP180;46834;51.100;6.886;2022-11-20T03:54:03;100615.00;;;8.90
60966;BMP180;46834;51.100;6.886;2022-11-20T03:56:32;100613.00;;;8.90
60966;BMP180;46834;51.100;6.886;2022-11-20T03:58:59;100622.00;;;9.00
60966;BMP180;46834;51.100;6.886;2022-11-20T04:01:29;100614.00;;;8.90
60966;BMP180;46834;51.100;6.886;2022-11-20T04:03:56;100611.00;;;8.90
60966;BMP180;46834;51.100;6.886;2022-11-20T04:06:25;100600.00;;;8.90
60966;BMP180;46834;51.100;6.886;2022-11-20T04:08:54;100628.00;;;8.90
60966;BMP180;46834;51.100;6.886;2022-11-20T04:11:24;100604.00;;;8.90
60966;BMP180;46834;51.100;6.886;2022-11-20T04:13:54;100604.00;;;8.90
60966;BMP180;46834;51.100;6.886;2022-11-20T04:16:21;100600.00;;;8.90
60966;BMP180;46834;51.100;6.886;2022-11-20T04:18:47;100614.00;;;9.00
60966;BMP180;46834;51.100;6.886;2022-11-20T04:21:16;100613.00;;;9.00
60966;BMP180;46834;51.100;6.886;2022-11-20T04:23:41;100608.00;;;9.00
60966;BMP180;46834;51.100;6.886;2022-11-20T04:26:11;100613.00;;;8.90
60966;BMP180;46834;51.100;6.886;2022-11-20T04:28:38;100615.00;;;9.00
60966;BMP180;46834;51.100;6.886;2022-11-20T04:31:13;100618.00;;;8.90
60966;BMP180;46834;51.100;6.886;2022-11-20T04:33:40;100617.00;;;9.00
60966;BMP180;46834;51.100;6.886;2022-11-20T04:36:15;100618.00;;;8.90
60966;BMP180;46834;51.100;6.886;2022-11-20T04:38:41;100615.00;;;9.00
60966;BMP180;46834;51.100;6.886;2022-11-20T04:41:16;100621.00;;;9.00
60966;BMP180;46834;51.100;6.886;2022-11-20T04:43:47;100601.00;;;9.00
60966;BMP180;46834;51.100;6.886;2022-11-20T04:46:18;100610.00;;;9.00
60966;BMP180;46834;51.100;6.886;2022-11-20T04:48:44;100618.00;;;9.10
60966;BMP180;46834;51.100;6.886;2022-11-20T04:51:10;100619.00;;;9.00
60966;BMP180;46834;51.100;6.886;2022-11-20T04:53:36;100607.00;;;9.10
60966;BMP180;46834;51.100;6.886;2022-11-20T04:56:06;100618.00;;;9.10
60966;BMP180;46834;51.100;6.886;2022-11-20T04:58:33;100618.00;;;9.10
60966;BMP180;46834;51.100;6.886;2022-11-20T05:01:20;100614.00;;;9.10
60966;BMP180;46834;51.100;6.886;2022-11-20T05:03:46;100619.00;;;9.10
60966;BMP180;46834;51.100;6.886;2022-11-20T05:06:15;100618.00;;;9.10
60966;BMP180;46834;51.100;6.886;2022-11-20T05:08:41;100616.00;;;9.10
60966;BMP180;46834;51.100;6.886;2022-11-20T05:11:14;100617.00;;;9.00
60966;BMP180;46834;51.100;6.886;2022-11-20T05:13:40;100629.00;;;9.10
60966;BMP180;46834;51.100;6.886;2022-11-20T05:16:12;100622.00;;;9.00
60966;BMP180;46834;51.100;6.886;2022-11-20T05:18:39;100615.00;;;9.00
60966;BMP180;46834;51.100;6.886;2022-11-20T05:21:07;100630.00;;;9.00
60966;BMP180;46834;51.100;6.886;2022-11-20T05:23:34;100611.00;;;9.10
60966;BMP180;46834;51.100;6.886;2022-11-20T05:26:01;100614.00;;;9.10
60966;BMP180;46834;51.100;6.886;2022-11-20T05:28:29;100616.00;;;9.10
60966;BMP180;46834;51.100;6.886;2022-11-20T05:31:04;100621.00;;;9.10
60966;BMP180;46834;51.100;6.886;2022-11-20T05:33:29;100605.00;;;9.10
60966;BMP180;46834;51.100;6.886;2022-11-20T05:35:58;100611.00;;;9.10
60966;BMP180;46834;51.100;6.886;2022-11-20T05:38:24;100607.00;;;9.10
60966;BMP180;46834;51.100;6.886;2022-11-20T05:40:49;100610.00;;;9.10
60966;BMP180;46834;51.100;6.886;2022-11-20T05:43:15;100601.00;;;9.10
60966;BMP180;46834;51.100;6.886;2022-11-20T05:45:40;100614.00;;;9.10
60966;BMP180;46834;51.100;6.886;2022-11-20T05:48:06;100612.00;;;9.10
60966;BMP180;46834;51.100;6.886;2022-11-20T05:50:32;100622.00;;;9.10
60966;BMP180;46834;51.100;6.886;2022-11-20T05:53:00;100624.00;;;9.10
60966;BMP180;46834;51.100;6.886;2022-11-20T05:55:27;100616.00;;;9.10
60966;BMP180;46834;51.100;6.886;2022-11-20T05:57:54;100615.00;;;9.10
60966;BMP180;46834;51.100;6.886;2022-11-20T06:00:20;100606.00;;;9.10
60966;BMP180;46834;51.100;6.886;2022-11-20T06:02:46;100605.00;;;9.00
60966;BMP180;46834;51.100;6.886;2022-11-20T06:05:12;100602.00;;;9.00
60966;BMP180;46834;51.100;6.886;2022-11-20T06:07:37;100613.00;;;9.00
60966;BMP180;46834;51.100;6.886;2022-11-20T06:10:03;100609.00;;;9.00
60966;BMP180;46834;51.100;6.886;2022-11-20T06:12:32;100610.00;;;9.00
60966;BMP180;46834;51.100;6.886;2022-11-20T06:14:58;100608.00;;;9.00
60966;BMP180;46834;51.100;6.886;2022-11-20T06:17:24;100599.00;;;8.90
60966;BMP180;46834;51.100;6.886;2022-11-20T06:19:50;100590.00;;;8.90
60966;BMP180;46834;51.100;6.886;2022-11-20T06:22:16;100596.00;;;8.90
60966;BMP180;46834;51.100;6.886;2022-11-20T06:24:41;100595.00;;;8.90
60966;BMP180;46834;51.100;6.886;2022-11-20T06:27:07;100605.00;;;8.80
60966;BMP180;46834;51.100;6.886;2022-11-20T06:29:32;100608.00;;;8.80
60966;BMP180;46834;51.100;6.886;2022-11-20T06:31:58;100592.00;;;8.80
60966;BMP180;46834;51.100;6.886;2022-11-20T06:34:23;100602.00;;;8.80
60966;BMP180;46834;51.100;6.886;2022-11-20T06:36:49;100607.00;;;8.70
60966;BMP180;46834;51.100;6.886;2022-11-20T06:39:15;100599.00;;;8.70
60966;BMP180;46834;51.100;6.886;2022-11-20T06:41:40;100611.00;;;8.70
60966;BMP180;46834;51.100;6.886;2022-11-20T06:44:06;100610.00;;;8.60
60966;BMP180;46834;51.100;6.886;2022-11-20T06:46:32;100599.00;;;8.60
60966;BMP180;46834;51.100;6.886;2022-11-20T06:48:57;100602.00;;;8.50
60966;BMP180;46834;51.100;6.886;2022-11-20T06:51:24;100566.00;;;8.50
60966;BMP180;46834;51.100;6.886;2022-11-20T06:53:49;100553.00;;;8.40
60966;BMP180;46834;51.100;6.886;2022-11-20T06:56:15;100566.00;;;8.40
60966;BMP180;46834;51.100;6.886;2022-11-20T06:58:41;100565.00;;;8.40
60966;BMP180;46834;51.100;6.886;2022-11-20T07:01:10;100564.00;;;8.30
60966;BMP180;46834;51.100;6.886;2022-11-20T07:03:37;100566.00;;;8.30
60966;BMP180;46834;51.100;6.886;2022-11-20T07:06:04;100581.00;;;8.30
60966;BMP180;46834;51.100;6.886;2022-11-20T07:08:30;100598.00;;;8.30
60966;BMP180;46834;51.100;6.886;2022-11-20T07:11:02;100588.00;;;8.20
60966;BMP180;46834;51.100;6.886;2022-11-20T07:13:29;100590.00;;;8.20
60966;BMP180;46834;51.100;6.886;2022-11-20T07:15:55;100592.00;;;8.20
60966;BMP180;46834;51.100;6.886;2022-11-20T07:18:21;100598.00;;;8.20
60966;BMP180;46834;51.100;6.886;2022-11-20T07:20:46;100608.00;;;8.20
60966;BMP180;46834;51.100;6.886;2022-11-20T07:23:12;100603.00;;;8.20
60966;BMP180;46834;51.100;6.886;2022-11-20T07:25:38;100616.00;;;8.10
60966;BMP180;46834;51.100;6.886;2022-11-20T07:28:04;100617.00;;;8.20
60966;BMP180;46834;51.100;6.886;2022-11-20T07:30:30;100613.00;;;8.10
60966;BMP180;46834;51.100;6.886;2022-11-20T07:32:56;100616.00;;;8.10
60966;BMP180;46834;51.100;6.886;2022-11-20T07:35:24;100616.00;;;8.10
60966;BMP180;46834;51.100;6.886;2022-11-20T07:37:49;100609.00;;;8.10
60966;BMP180;46834;51.100;6.886;2022-11-20T07:40:17;100617.00;;;8.10
60966;BMP180;46834;51.100;6.886;2022-11-20T07:42:54;100620.00;;;8.10
60966;BMP180;46834;51.100;6.886;2022-11-20T07:45:22;100605.00;;;8.20
60966;BMP180;46834;51.100;6.886;2022-11-20T07:47:49;100611.00;;;8.20
60966;BMP180;46834;51.100;6.886;2022-11-20T07:50:15;100603.00;;;8.20
60966;BMP180;46834;51.100;6.886;2022-11-20T07:52:41;100599.00;;;8.20
60966;BMP180;46834;51.100;6.886;2022-11-20T07:55:09;100597.00;;;8.20
60966;BMP180;46834;51.100;6.886;2022-11-20T07:57:35;100600.00;;;8.20
60966;BMP180;46834;51.100;6.886;2022-11-20T08:00:01;100597.00;;;8.20
60966;BMP180;46834;51.100;6.886;2022-11-20T08:02:27;100598.00;;;8.20
60966;BMP180;46834;51.100;6.886;2022-11-20T08:04:52;100603.00;;;8.20
60966;BMP180;46834;51.100;6.886;2022-11-20T08:07:18;100598.00;;;8.30
60966;BMP180;46834;51.100;6.886;2022-11-20T08:09:44;100602.00;;;8.30
60966;BMP180;46834;51.100;6.886;2022-11-20T08:12:18;100576.00;;;8.20
60966;BMP180;46834;51.100;6.886;2022-11-20T08:15:05;100583.00;;;8.30
60966;BMP180;46834;51.100;6.886;2022-11-20T08:17:31;100562.00;;;8.30
60966;BMP180;46834;51.100;6.886;2022-11-20T08:19:57;100582.00;;;8.30
60966;BMP180;46834;51.100;6.886;2022-11-20T08:22:23;100589.00;;;8.40
60966;BMP180;46834;51.100;6.886;2022-11-20T08:24:48;100599.00;;;8.40
60966;BMP180;46834;51.100;6.886;2022-11-20T08:27:14;100597.00;;;8.40
60966;BMP180;46834;51.100;6.886;2022-11-20T08:29:40;100597.00;;;8.40
60966;BMP180;46834;51.100;6.886;2022-11-20T08:32:06;100599.00;;;8.50
60966;BMP180;46834;51.100;6.886;2022-11-20T08:34:31;100598.00;;;8.50
60966;BMP180;46834;51.100;6.886;2022-11-20T08:36:57;100602.00;;;8.50
60966;BMP180;46834;51.100;6.886;2022-11-20T08:39:22;100591.00;;;8.50
60966;BMP180;46834;51.100;6.886;2022-11-20T08:41:48;100583.00;;;8.50
60966;BMP180;46834;51.100;6.886;2022-11-20T08:44:13;100576.00;;;8.60
60966;BMP180;46834;51.100;6.886;2022-11-20T08:46:41;100587.00;;;8.60
60966;BMP180;46834;51.100;6.886;2022-11-20T08:49:11;100589.00;;;8.60
60966;BMP180;46834;51.100;6.886;2022-11-20T08:51:38;100590.00;;;8.60
60966;BMP180;46834;51.100;6.886;2022-11-20T08:54:05;100583.00;;;8.60
60966;BMP180;46834;51.100;6.886;2022-11-20T08:56:31;100590.00;;;8.70
60966;BMP180;46834;51.100;6.886;2022-11-20T08:58:58;100601.00;;;8.70
60966;BMP180;46834;51.100;6.886;2022-11-20T09:01:28;100611.00;;;8.70
60966;BMP180;46834;51.100;6.886;2022-11-20T09:03:58;100613.00;;;8.70
60966;BMP180;46834;51.100;6.886;2022-11-20T09:06:25;100606.00;;;8.70
60966;BMP180;46834;51.100;6.886;2022-11-20T09:08:54;100602.00;;;8.80
60966;BMP180;46834;51.100;6.886;2022-11-20T09:11:21;100606.00;;;8.80
60966;BMP180;46834;51.100;6.886;2022-11-20T09:13:47;100590.00;;;8.80
60966;BMP180;46834;51.100;6.886;2022-11-20T09:16:13;100603.00;;;8.80
60966;BMP180;46834;51.100;6.886;2022-11-20T09:18:38;100596.00;;;8.80
60966;BMP180;46834;51.100;6.886;2022-11-20T09:21:08;100587.00;;;8.80
60966;BMP180;46834;51.100;6.886;2022-11-20T09:23:36;100582.00;;;8.90
60966;BMP180;46834;51.100;6.886;2022-11-20T09:26:10;100577.00;;;8.80
60966;BMP180;46834;51.100;6.886;2022-11-20T09:28:36;100574.00;;;8.90
60966;BMP180;46834;51.100;6.886;2022-11-20T09:31:19;100551.00;;;8.80
60966;BMP180;46834;51.100;6.886;2022-11-20T09:33:46;100564.00;;;8.90
60966;BMP180;46834;51.100;6.886;2022-11-20T09:36:12;100561.00;;;8.90
60966;BMP180;46834;51.100;6.886;2022-11-20T09:38:38;100551.00;;;8.90
60966;BMP180;46834;51.100;6.886;2022-11-20T09:41:06;100541.00;;;9.00
60966;BMP180;46834;51.100;6.886;2022-11-20T09:44:27;100556.00;;;8.90
60966;BMP180;46834;51.100;6.886;2022-11-20T09:46:58;100553.00;;;8.90
60966;BMP180;46834;51.100;6.886;2022-11-20T09:49:59;100562.00;;;8.90
60966;BMP180;46834;51.100;6.886;2022-11-20T09:52:39;100559.00;;;8.90
60966;BMP180;46834;51.100;6.886;2022-11-20T09:55:11;100550.00;;;8.90
60966;BMP180;46834;51.100;6.886;2022-11-20T09:57:43;100575.00;;;8.90
60966;BMP180;46834;51.100;6.886;2022-11-20T10:00:13;100568.00;;;9.00
60966;BMP180;46834;51.100;6.886;2022-11-20T10:02:55;100571.00;;;9.00
60966;BMP180;46834;51.100;6.886;2022-11-20T10:05:45;100563.00;;;9.00
60966;BMP180;46834;51.100;6.886;2022-11-20T10:08:30;100574.00;;;9.00
60966;BMP180;46834;51.100;6.886;2022-11-20T10:13:40;100570.00;;;9.10
60966;BMP180;46834;51.100;6.886;2022-11-20T10:16:42;100569.00;;;9.00
60966;BMP180;46834;51.100;6.886;2022-11-20T10:25:19;100558.00;;;9.10
60966;BMP180;46834;51.100;6.886;2022-11-20T10:30:27;100541.00;;;9.20
60966;BMP180;46834;51.100;6.886;2022-11-20T10:35:43;100530.00;;;9.20
60966;BMP180;46834;51.100;6.886;2022-11-20T10:38:25;100517.00;;;9.20
60966;BMP180;46834;51.100;6.886;2022-11-20T10:41:01;100526.00;;;9.20
60966;BMP180;46834;51.100;6.886;2022-11-20T10:43:48;100516.00;;;9.20
60966;BMP180;46834;51.100;6.886;2022-11-20T10:46:18;100511.00;;;9.20
60966;BMP180;46834;51.100;6.886;2022-11-20T10:48:46;100513.00;;;9.20
60966;BMP180;46834;51.100;6.886;2022-11-20T10:51:18;100496.00;;;9.20
60966;BMP180;46834;51.100;6.886;2022-11-20T10:54:18;100505.00;;;9.20
60966;BMP180;46834;51.100;6.886;2022-11-20T10:56:52;100476.00;;;9.30
60966;BMP180;46834;51.100;6.886;2022-11-20T11:02:23;100479.00;;;9.30
60966;BMP180;46834;51.100;6.886;2022-11-20T11:04:52;100476.00;;;9.40
60966;BMP180;46834;51.100;6.886;2022-11-20T11:07:36;100483.00;;;9.40
60966;BMP180;46834;51.100;6.886;2022-11-20T11:10:21;100468.00;;;9.40
60966;BMP180;46834;51.100;6.886;2022-11-20T11:12:48;100461.00;;;9.40
60966;BMP180;46834;51.100;6.886;2022-11-20T11:15:38;100463.00;;;9.40
60966;BMP180;46834;51.100;6.886;2022-11-20T11:18:05;100450.00;;;9.50
60966;BMP180;46834;51.100;6.886;2022-11-20T11:20:33;100452.00;;;9.50
60966;BMP180;46834;51.100;6.886;2022-11-20T11:22:59;100465.00;;;9.50
60966;BMP180;46834;51.100;6.886;2022-11-20T11:25:36;100455.00;;;9.50
60966;BMP180;46834;51.100;6.886;2022-11-20T11:28:19;100455.00;;;9.50
60966;BMP180;46834;51.100;6.886;2022-11-20T11:30:46;100459.00;;;9.50
60966;BMP180;46834;51.100;6.886;2022-11-20T11:33:30;100443.00;;;9.50
60966;BMP180;46834;51.100;6.886;2022-11-20T11:36:02;100455.00;;;9.50
60966;BMP180;46834;51.100;6.886;2022-11-20T11:38:30;100447.00;;;9.50
60966;BMP180;46834;51.100;6.886;2022-11-20T11:40:57;100432.00;;;9.50
60966;BMP180;46834;51.100;6.886;2022-11-20T11:43:27;100418.00;;;9.50
60966;BMP180;46834;51.100;6.886;2022-11-20T11:46:32;100414.00;;;9.50
60966;BMP180;46834;51.100;6.886;2022-11-20T11:54:59;100417.00;;;9.50
60966;BMP180;46834;51.100;6.886;2022-11-20T11:57:46;100421.00;;;9.50
60966;BMP180;46834;51.100;6.886;2022-11-20T12:00:18;100415.00;;;9.60
60966;BMP180;46834;51.100;6.886;2022-11-20T12:05:29;100392.00;;;9.50
60966;BMP180;46834;51.100;6.886;2022-11-20T12:08:18;100385.00;;;9.50
60966;BMP180;46834;51.100;6.886;2022-11-20T12:11:06;100387.00;;;9.50
60966;BMP180;46834;51.100;6.886;2022-11-20T12:16:19;100391.00;;;9.60
60966;BMP180;46834;51.100;6.886;2022-11-20T12:18:51;100377.00;;;9.60
60966;BMP180;46834;51.100;6.886;2022-11-20T12:27:57;100384.00;;;9.50
60966;BMP180;46834;51.100;6.886;2022-11-20T12:30:26;100381.00;;;9.60
60966;BMP180;46834;51.100;6.886;2022-11-20T12:33:20;100384.00;;;9.50
60966;BMP180;46834;51.100;6.886;2022-11-20T12:36:17;100371.00;;;9.60
60966;BMP180;46834;51.100;6.886;2022-11-20T12:39:07;100371.00;;;9.50
60966;BMP180;46834;51.100;6.886;2022-11-20T12:51:23;100348.00;;;9.50
60966;BMP180;46834;51.100;6.886;2022-11-20T12:56:57;100339.00;;;9.50
60966;BMP180;46834;51.100;6.886;2022-11-20T13:07:44;100333.00;;;9.60
60966;BMP180;46834;51.100;6.886;2022-11-20T13:10:42;100317.00;;;9.60
60966;BMP180;46834;51.100;6.886;2022-11-20T13:17:00;100305.00;;;9.60
60966;BMP180;46834;51.100;6.886;2022-11-20T13:19:28;100301.00;;;9.70
60966;BMP180;46834;51.100;6.886;2022-11-20T13:21:55;100290.00;;;9.70
60966;BMP180;46834;51.100;6.886;2022-11-20T13:27:02;100287.00;;;9.70
60966;BMP180;46834;51.100;6.886;2022-11-20T13:29:29;100271.00;;;9.80
60966;BMP180;46834;51.100;6.886;2022-11-20T13:32:18;100274.00;;;9.70
60966;BMP180;46834;51.100;6.886;2022-11-20T13:35:35;100274.00;;;9.70
60966;BMP180;46834;51.100;6.886;2022-11-20T13:38:10;100262.00;;;9.70
60966;BMP180;46834;51.100;6.886;2022-11-20T13:40:59;100271.00;;;9.70
60966;BMP180;46834;51.100;6.886;2022-11-20T13:43:47;100277.00;;;9.80
60966;BMP180;46834;51.100;6.886;2022-11-20T13:46:13;100248.00;;;9.80
60966;BMP180;46834;51.100;6.886;2022-11-20T13:48:44;100256.00;;;9.80
60966;BMP180;46834;51.100;6.886;2022-11-20T13:57:14;100229.00;;;9.70
60966;BMP180;46834;51.100;6.886;2022-11-20T13:59:57;100231.00;;;9.70
60966;BMP180;46834;51.100;6.886;2022-11-20T14:02:28;100218.00;;;9.70
60966;BMP180;46834;51.100;6.886;2022-11-20T14:05:00;100222.00;;;9.70
60966;BMP180;46834;51.100;6.886;2022-11-20T14:07:40;100227.00;;;9.70
60966;BMP180;46834;51.100;6.886;2022-11-20T14:10:28;100227.00;;;9.70
60966;BMP180;46834;51.100;6.886;2022-11-20T14:12:54;100205.00;;;9.80
60966;BMP180;46834;51.100;6.886;2022-11-20T14:15:32;100210.00;;;9.70
60966;BMP180;46834;51.100;6.886;2022-11-20T14:18:10;100208.00;;;9.80
60966;BMP180;46834;51.100;6.886;2022-11-20T14:20:38;100194.00;;;9.80
60966;BMP180;46834;51.100;6.886;2022-11-20T14:23:04;100183.00;;;9.80
60966;BMP180;46834;51.100;6.886;2022-11-20T14:25:31;100179.00;;;9.90
60966;BMP180;46834;51.100;6.886;2022-11-20T14:28:00;100179.00;;;9.80
60966;BMP180;46834;51.100;6.886;2022-11-20T14:30:40;100172.00;;;9.90
60966;BMP180;46834;51.100;6.886;2022-11-20T14:33:12;100168.00;;;9.90
60966;BMP180;46834;51.100;6.886;2022-11-20T14:35:51;100175.00;;;9.90
60966;BMP180;46834;51.100;6.886;2022-11-20T14:38:23;100168.00;;;9.90
60966;BMP180;46834;51.100;6.886;2022-11-20T14:40:49;100155.00;;;9.90
60966;BMP180;46834;51.100;6.886;2022-11-20T14:43:27;100164.00;;;9.90
60966;BMP180;46834;51.100;6.886;2022-11-20T14:45:59;100148.00;;;9.90
60966;BMP180;46834;51.100;6.886;2022-11-20T14:48:47;100150.00;;;9.90
60966;BMP180;46834;51.100;6.886;2022-11-20T14:51:44;100152.00;;;9.90
60966;BMP180;46834;51.100;6.886;2022-11-20T14:54:16;100144.00;;;9.90
60966;BMP180;46834;51.100;6.886;2022-11-20T14:56:58;100156.00;;;9.90
60966;BMP180;46834;51.100;6.886;2022-11-20T14:59:28;100145.00;;;9.90
60966;BMP180;46834;51.100;6.886;2022-11-20T15:02:05;100133.00;;;9.90
60966;BMP180;46834;51.100;6.886;2022-11-20T15:04:31;100143.00;;;9.90
60966;BMP180;46834;51.100;6.886;2022-11-20T15:06:59;100121.00;;;9.90
60966;BMP180;46834;51.100;6.886;2022-11-20T15:09:25;100125.00;;;9.90
60966;BMP180;46834;51.100;6.886;2022-11-20T15:12:01;100126.00;;;9.90
60966;BMP180;46834;51.100;6.886;2022-11-20T15:14:30;100108.00;;;9.90
60966;BMP180;46834;51.100;6.886;2022-11-20T15:16:56;100124.00;;;9.90
60966;BMP180;46834;51.100;6.886;2022-11-20T15:19:25;100121.00;;;9.90
60966;BMP180;46834;51.100;6.886;2022-11-20T15:21:51;100125.00;;;9.90
60966;BMP180;46834;51.100;6.886;2022-11-20T15:24:18;100125.00;;;9.90
60966;BMP180;46834;51.100;6.886;2022-11-20T15:26:44;100111.00;;;9.90
60966;BMP180;46834;51.100;6.886;2022-11-20T15:29:12;100110.00;;;9.90
60966;BMP180;46834;51.100;6.886;2022-11-20T15:31:39;100107.00;;;9.90
60966;BMP180;46834;51.100;6.886;2022-11-20T15:34:15;100116.00;;;9.80
60966;BMP180;46834;51.100;6.886;2022-11-20T15:36:42;100099.00;;;9.80
60966;BMP180;46834;51.100;6.886;2022-11-20T15:39:09;100099.00;;;9.80
60966;BMP180;46834;51.100;6.886;2022-11-20T15:41:38;100099.00;;;9.80